createdAt,value
2022-12-04T00:00:35.019Z,97658.94
2022-12-04T00:03:02.523Z,97656.16
2022-12-04T00:05:30.014Z,97652.13
2022-12-04T00:07:57.572Z,97642.63
2022-12-04T00:10:26.472Z,97645.25
2022-12-04T00:12:53.938Z,97635.38
2022-12-04T00:15:26.018Z,97633.16
2022-12-04T00:17:54.509Z,97627.03
2022-12-04T00:20:22.829Z,97623.75
2022-12-04T00:22:50.319Z,97622.97
2022-12-04T00:25:17.907Z,97614.25
2022-12-04T00:27:48.751Z,97621.44
2022-12-04T00:30:16.339Z,97623.06
2022-12-04T00:32:43.778Z,97623.28
2022-12-04T00:35:11.226Z,97613.16
2022-12-04T00:37:38.694Z,97631.41
2022-12-04T00:40:08.397Z,97630.47
2022-12-04T00:42:36.022Z,97630.50
2022-12-04T00:45:05.448Z,97617.13
2022-12-04T00:47:32.876Z,97610.41
2022-12-04T00:50:00.326Z,97616.34
2022-12-04T00:52:28.471Z,97617.94
2022-12-04T00:54:55.984Z,97605.28
2022-12-04T00:57:23.519Z,97608.78
2022-12-04T00:59:50.977Z,97613.88
2022-12-04T01:02:19.839Z,97598.22
2022-12-04T01:04:47.883Z,97598.28
2022-12-04T01:07:15.383Z,97598.91
2022-12-04T01:09:42.853Z,97598.81
2022-12-04T01:12:10.338Z,97587.09
2022-12-04T01:14:37.800Z,97581.81
2022-12-04T01:17:05.307Z,97571.28
2022-12-04T01:19:34.082Z,97604.03
2022-12-04T01:22:01.904Z,97595.06
2022-12-04T01:24:29.361Z,97585.16
2022-12-04T01:26:56.791Z,97595.03
2022-12-04T01:29:24.260Z,97593.63
2022-12-04T01:31:51.816Z,97586.06
2022-12-04T01:34:19.338Z,97595.44
2022-12-04T01:36:48.297Z,97596.97
2022-12-04T01:39:15.725Z,97603.56
2022-12-04T01:41:43.211Z,97592.72
2022-12-04T01:44:17.180Z,97601.28
2022-12-04T01:46:46.271Z,97586.69
2022-12-04T01:49:15.013Z,97586.91
2022-12-04T01:51:46.652Z,97590.72
2022-12-04T01:54:20.210Z,97584.94
2022-12-04T01:56:53.386Z,97582.31
2022-12-04T01:59:25.009Z,97575.56
2022-12-04T02:01:58.123Z,97568.44
2022-12-04T02:04:25.766Z,97580.50
2022-12-04T02:06:53.212Z,97578.34
2022-12-04T02:09:26.777Z,97582.84
2022-12-04T02:12:01.020Z,97582.22
2022-12-04T02:14:36.676Z,97593.03
2022-12-04T02:17:11.730Z,97586.94
2022-12-04T02:19:54.387Z,97587.81
2022-12-04T02:22:31.664Z,97576.22
2022-12-04T02:25:08.602Z,97583.78
2022-12-04T02:28:00.514Z,97586.31
2022-12-04T02:30:29.248Z,97588.03
2022-12-04T02:33:03.305Z,97582.38
2022-12-04T02:35:34.764Z,97586.75
2022-12-04T02:38:07.529Z,97583.19
2022-12-04T02:40:43.891Z,97578.31
2022-12-04T02:43:17.554Z,97580.19
2022-12-04T02:45:48.010Z,97580.69
2022-12-04T02:48:19.808Z,97586.44
2022-12-04T02:50:50.976Z,97578.31
2022-12-04T02:53:23.188Z,97573.81
2022-12-04T02:55:55.275Z,97566.78
2022-12-04T02:58:30.137Z,97570.47
2022-12-04T03:01:01.358Z,97571.47
2022-12-04T03:03:31.269Z,97576.72
2022-12-04T03:06:06.022Z,97561.06
2022-12-04T03:08:38.794Z,97560.03
2022-12-04T03:11:06.615Z,97567.16
2022-12-04T03:13:40.319Z,97558.69
2022-12-04T03:16:13.578Z,97551.69
2022-12-04T03:18:44.662Z,97554.69
2022-12-04T03:21:15.714Z,97552.22
2022-12-04T03:23:47.054Z,97543.00
2022-12-04T03:26:19.762Z,97546.47
2022-12-04T03:28:55.141Z,97540.03
2022-12-04T03:31:32.479Z,97543.44
2022-12-04T03:34:04.799Z,97542.38
2022-12-04T03:36:37.077Z,97541.31
2022-12-04T03:39:12.749Z,97535.81
2022-12-04T03:41:50.836Z,97539.25
2022-12-04T03:44:28.023Z,97542.84
2022-12-04T03:46:59.034Z,97532.84
2022-12-04T03:49:32.805Z,97530.25
2022-12-04T03:52:05.543Z,97528.28
2022-12-04T03:54:35.425Z,97533.81
2022-12-04T03:57:09.449Z,97535.22
2022-12-04T03:59:41.560Z,97531.66
2022-12-04T04:02:12.760Z,97525.84
2022-12-04T04:04:43.616Z,97517.41
2022-12-04T04:07:15.588Z,97519.56
2022-12-04T04:09:48.157Z,97524.09
2022-12-04T04:12:20.788Z,97526.09
2022-12-04T04:15:11.416Z,97522.16
2022-12-04T04:18:02.576Z,97515.44
2022-12-04T04:20:54.195Z,97509.50
2022-12-04T04:23:40.668Z,97504.00
2022-12-04T04:26:09.801Z,97508.19
2022-12-04T04:28:39.201Z,97506.03
2022-12-04T04:31:13.195Z,97501.56
2022-12-04T04:33:52.620Z,97495.66
2022-12-04T04:36:26.319Z,97500.34
2022-12-04T04:39:01.688Z,97508.06
2022-12-04T04:41:35.791Z,97507.38
2022-12-04T04:44:13.359Z,97514.47
2022-12-04T04:46:47.544Z,97512.22
2022-12-04T04:49:16.786Z,97516.56
2022-12-04T04:51:45.980Z,97523.53
2022-12-04T04:54:15.554Z,97526.25
2022-12-04T04:56:43.952Z,97521.41
2022-12-04T04:59:11.815Z,97525.88
2022-12-04T05:01:40.671Z,97528.88
2022-12-04T05:04:09.909Z,97534.03
2022-12-04T05:06:37.349Z,97542.91
2022-12-04T05:09:05.189Z,97551.16
2022-12-04T05:11:32.873Z,97533.38
2022-12-04T05:14:00.360Z,97534.66
2022-12-04T05:16:27.909Z,97545.31
2022-12-04T05:19:12.966Z,97546.00
2022-12-04T05:21:42.427Z,97544.72
2022-12-04T05:24:10.229Z,97544.72
2022-12-04T05:26:37.807Z,97545.09
2022-12-04T05:29:05.247Z,97538.88
2022-12-04T05:31:32.779Z,97542.53
2022-12-04T05:34:00.298Z,97540.69
2022-12-04T05:36:27.799Z,97544.09
2022-12-04T05:38:56.586Z,97543.81
2022-12-04T05:41:24.812Z,97548.72
2022-12-04T05:43:53.065Z,97549.16
2022-12-04T05:46:20.679Z,97544.63
2022-12-04T05:48:48.141Z,97546.84
2022-12-04T05:51:15.630Z,97546.31
2022-12-04T05:53:43.106Z,97548.97
2022-12-04T05:56:12.230Z,97551.53
2022-12-04T05:58:39.788Z,97558.94
2022-12-04T06:01:12.837Z,97549.88
2022-12-04T06:03:40.296Z,97546.91
2022-12-04T06:06:19.294Z,97555.16
2022-12-04T06:08:49.168Z,97553.03
2022-12-04T06:11:19.882Z,97557.56
2022-12-04T06:13:48.166Z,97556.81
2022-12-04T06:16:16.621Z,97563.31
2022-12-04T06:18:44.599Z,97554.41
2022-12-04T06:21:12.444Z,97557.34
2022-12-04T06:23:39.910Z,97554.25
2022-12-04T06:26:09.863Z,97565.13
2022-12-04T06:28:38.988Z,97563.75
2022-12-04T06:31:08.742Z,97560.28
2022-12-04T06:33:36.833Z,97568.13
2022-12-04T06:36:06.894Z,97564.75
2022-12-04T06:38:35.153Z,97556.34
2022-12-04T06:41:05.456Z,97561.94
2022-12-04T06:43:33.521Z,97558.56
2022-12-04T06:46:04.119Z,97562.88
2022-12-04T06:48:32.059Z,97559.84
2022-12-04T06:51:00.627Z,97568.06
2022-12-04T06:53:30.231Z,97566.69
2022-12-04T06:55:58.987Z,97574.44
2022-12-04T06:58:26.839Z,97572.16
2022-12-04T07:00:54.937Z,97577.88
2022-12-04T07:03:24.811Z,97574.44
2022-12-04T07:05:52.823Z,97573.06
2022-12-04T07:08:20.341Z,97572.75
2022-12-04T07:10:47.867Z,97566.56
2022-12-04T07:13:15.301Z,97566.88
2022-12-04T07:15:42.833Z,97552.88
2022-12-04T07:18:10.361Z,97541.72
2022-12-04T07:20:40.935Z,97542.53
2022-12-04T07:23:08.362Z,97535.16
2022-12-04T07:25:40.442Z,97523.22
2022-12-04T07:28:07.884Z,97521.81
2022-12-04T07:30:35.325Z,97518.84
2022-12-04T07:33:02.740Z,97519.03
2022-12-04T07:35:30.207Z,97523.25
2022-12-04T07:37:59.125Z,97529.91
2022-12-04T07:40:26.568Z,97531.78
2022-12-04T07:42:54.002Z,97535.94
2022-12-04T07:45:21.808Z,97534.19
2022-12-04T07:47:49.292Z,97538.72
2022-12-04T07:50:17.015Z,97529.47
2022-12-04T07:52:44.503Z,97532.63
2022-12-04T07:55:13.353Z,97536.94
2022-12-04T07:57:41.256Z,97535.06
2022-12-04T08:00:10.333Z,97537.22
2022-12-04T08:02:37.795Z,97538.91
2022-12-04T08:05:05.582Z,97540.50
2022-12-04T08:07:33.763Z,97548.06
2022-12-04T08:10:01.239Z,97541.16
2022-12-04T08:12:30.060Z,97537.38
2022-12-04T08:14:57.493Z,97536.19
2022-12-04T08:17:25.111Z,97540.25
2022-12-04T08:19:53.149Z,97544.94
2022-12-04T08:22:24.988Z,97546.66
2022-12-04T08:24:52.959Z,97541.22
2022-12-04T08:27:20.427Z,97542.59
2022-12-04T08:29:49.194Z,97546.16
2022-12-04T08:32:16.662Z,97546.28
2022-12-04T08:34:44.125Z,97549.38
2022-12-04T08:37:11.552Z,97545.84
2022-12-04T08:39:38.991Z,97538.59
2022-12-04T08:42:06.427Z,97544.41
2022-12-04T08:44:33.963Z,97544.69
2022-12-04T08:47:02.821Z,97545.72
2022-12-04T08:49:30.244Z,97566.88
2022-12-04T08:51:57.722Z,97571.53
2022-12-04T08:54:25.179Z,97565.63
2022-12-04T08:56:52.620Z,97559.19
2022-12-04T08:59:20.069Z,97550.81
2022-12-04T09:01:47.572Z,97542.53
2022-12-04T09:04:16.461Z,97550.81
2022-12-04T09:06:43.992Z,97545.38
2022-12-04T09:09:12.391Z,97549.50
2022-12-04T09:11:39.961Z,97552.31
2022-12-04T09:14:07.549Z,97562.38
2022-12-04T09:16:35.029Z,97562.28
2022-12-04T09:19:02.556Z,97554.97
2022-12-04T09:21:31.500Z,97543.56
2022-12-04T09:24:00.024Z,97540.06
2022-12-04T09:26:29.418Z,97545.63
2022-12-04T09:28:59.077Z,97545.88
2022-12-04T09:31:27.025Z,97546.28
2022-12-04T09:33:54.648Z,97551.91
2022-12-04T09:36:22.565Z,97544.09
2022-12-04T09:38:53.122Z,97545.94
2022-12-04T09:41:48.591Z,97542.06
2022-12-04T09:44:20.442Z,97543.13
2022-12-04T09:46:52.491Z,97533.16
2022-12-04T09:49:24.057Z,97529.72
2022-12-04T09:51:55.278Z,97515.66
2022-12-04T09:54:29.211Z,97510.41
2022-12-04T09:57:01.581Z,97514.03
2022-12-04T09:59:31.819Z,97506.31
2022-12-04T10:02:04.036Z,97491.38
2022-12-04T10:04:31.901Z,97501.34
2022-12-04T10:07:05.751Z,97516.25
2022-12-04T10:09:44.141Z,97529.03
2022-12-04T10:12:23.220Z,97517.28
2022-12-04T10:15:02.349Z,97501.03
2022-12-04T10:17:45.304Z,97505.06
2022-12-04T10:20:24.962Z,97501.69
2022-12-04T10:23:04.050Z,97500.59
2022-12-04T10:25:38.106Z,97505.75
2022-12-04T10:28:17.188Z,97503.28
2022-12-04T10:30:46.498Z,97492.81
2022-12-04T10:33:20.255Z,97475.28
2022-12-04T10:35:52.260Z,97469.84
2022-12-04T10:38:30.496Z,97472.69
2022-12-04T10:41:04.126Z,97466.03
2022-12-04T10:43:41.579Z,97465.19
2022-12-04T10:46:11.663Z,97463.22
2022-12-04T10:48:41.475Z,97462.69
2022-12-04T10:51:15.628Z,97455.44
2022-12-04T10:53:43.374Z,97450.63
2022-12-04T10:56:14.751Z,97442.69
2022-12-04T10:58:42.849Z,97442.84
2022-12-04T11:01:13.363Z,97443.69
2022-12-04T11:03:44.522Z,97446.00
2022-12-04T11:06:12.284Z,97441.03
2022-12-04T11:08:42.848Z,97426.66
2022-12-04T11:11:14.179Z,97421.00
2022-12-04T11:13:43.003Z,97416.22
2022-12-04T11:16:35.592Z,97412.88
2022-12-04T11:19:03.184Z,97406.25
2022-12-04T11:21:32.438Z,97404.63
2022-12-04T11:24:00.053Z,97400.66
2022-12-04T11:26:35.046Z,97405.78
2022-12-04T11:29:05.087Z,97404.78
2022-12-04T11:31:33.734Z,97399.50
2022-12-04T11:34:03.822Z,97400.97
2022-12-04T11:36:33.642Z,97395.84
2022-12-04T11:39:08.477Z,97385.88
2022-12-04T11:41:37.311Z,97392.03
2022-12-04T11:44:07.213Z,97405.97
2022-12-04T11:46:35.336Z,97403.47
2022-12-04T11:49:03.989Z,97404.81
2022-12-04T11:51:42.349Z,97408.09
2022-12-04T11:54:25.613Z,97417.09
2022-12-04T11:57:03.081Z,97418.22
2022-12-04T11:59:45.344Z,97406.78
2022-12-04T12:02:42.048Z,97413.41
2022-12-04T12:05:23.148Z,97404.47
2022-12-04T12:08:02.406Z,97407.13
2022-12-04T12:10:40.089Z,97400.34
2022-12-04T12:13:21.203Z,97396.84
2022-12-04T12:15:59.563Z,97386.22
2022-12-04T12:18:43.936Z,97378.59
2022-12-04T12:21:17.111Z,97365.00
2022-12-04T12:23:59.387Z,97363.47
2022-12-04T12:26:34.874Z,97353.53
2022-12-04T12:29:22.468Z,97345.56
2022-12-04T12:32:06.376Z,97351.34
2022-12-04T12:34:39.069Z,97348.22
2022-12-04T12:37:15.448Z,97349.53
2022-12-04T12:39:49.342Z,97352.19
2022-12-04T12:42:22.577Z,97359.69
2022-12-04T12:44:56.954Z,97351.84
2022-12-04T12:47:29.132Z,97360.50
2022-12-04T12:50:01.517Z,97362.47
2022-12-04T12:52:34.867Z,97361.00
2022-12-04T12:55:11.172Z,97366.31
2022-12-04T12:57:43.119Z,97359.66
2022-12-04T13:00:18.041Z,97361.00
2022-12-04T13:02:50.139Z,97357.66
2022-12-04T13:05:23.168Z,97350.34
2022-12-04T13:07:58.127Z,97341.41
2022-12-04T13:10:30.299Z,97337.06
2022-12-04T13:13:00.766Z,97345.03
2022-12-04T13:15:37.420Z,97336.09
2022-12-04T13:18:08.585Z,97336.22
2022-12-04T13:20:49.172Z,97329.09
2022-12-04T13:23:38.256Z,97323.56
2022-12-04T13:26:17.617Z,97306.16
2022-12-04T13:28:54.989Z,97307.16
2022-12-04T13:31:34.268Z,97310.97
2022-12-04T13:34:19.945Z,97316.25
2022-12-04T13:37:01.881Z,97312.28
2022-12-04T13:40:17.425Z,97305.81
2022-12-04T13:42:45.322Z,97319.28
2022-12-04T13:45:27.362Z,97318.25
2022-12-04T13:47:59.747Z,97311.44
2022-12-04T13:50:30.484Z,97303.81
2022-12-04T13:52:58.513Z,97312.63
2022-12-04T13:55:29.298Z,97312.28
2022-12-04T13:57:59.138Z,97300.13
2022-12-04T14:00:30.539Z,97301.44
2022-12-04T14:03:01.923Z,97306.75
2022-12-04T14:05:32.437Z,97298.16
2022-12-04T14:08:07.097Z,97298.16
2022-12-04T14:10:37.719Z,97297.81
2022-12-04T14:13:16.992Z,97295.16
2022-12-04T14:15:44.818Z,97295.34
2022-12-04T14:18:26.319Z,97301.31
2022-12-04T14:21:00.076Z,97302.78
2022-12-04T14:23:35.393Z,97301.84
2022-12-04T14:26:05.146Z,97303.16
2022-12-04T14:28:42.574Z,97302.03
2022-12-04T14:31:19.619Z,97303.31
2022-12-04T14:33:52.404Z,97300.66
2022-12-04T14:36:25.392Z,97301.66
2022-12-04T14:39:02.530Z,97307.94
2022-12-04T14:41:30.103Z,97306.97
2022-12-04T14:43:58.260Z,97298.53
2022-12-04T14:46:33.107Z,97310.13
2022-12-04T14:49:14.090Z,97306.16
2022-12-04T14:51:50.059Z,97309.63
2022-12-04T14:54:26.589Z,97316.63
2022-12-04T14:57:09.034Z,97307.34
2022-12-04T14:59:43.522Z,97314.13
2022-12-04T15:02:14.611Z,97317.09
2022-12-04T15:04:46.231Z,97318.13
2022-12-04T15:07:21.226Z,97313.94
2022-12-04T15:10:10.767Z,97311.63
2022-12-04T15:12:46.864Z,97315.78
2022-12-04T15:15:19.289Z,97308.66
2022-12-04T15:17:57.416Z,97316.63
2022-12-04T15:20:27.464Z,97316.63
2022-12-04T15:22:58.649Z,97321.94
2022-12-04T15:25:29.101Z,97321.38
2022-12-04T15:28:04.683Z,97323.28
2022-12-04T15:30:37.363Z,97326.06
2022-12-04T15:33:05.775Z,97323.91
2022-12-04T15:35:35.430Z,97323.28
2022-12-04T15:38:03.612Z,97328.41
2022-12-04T15:40:31.916Z,97334.06
2022-12-04T15:43:17.115Z,97339.00
2022-12-04T15:45:45.218Z,97336.03
2022-12-04T15:48:12.648Z,97338.19
2022-12-04T15:50:43.205Z,97333.06
2022-12-04T15:53:20.010Z,97327.25
2022-12-04T15:55:50.467Z,97328.41
2022-12-04T15:58:22.085Z,97339.38
2022-12-04T16:00:55.737Z,97338.38
2022-12-04T16:03:27.588Z,97342.03
2022-12-04T16:06:17.639Z,97335.22
2022-12-04T16:08:47.054Z,97346.66
2022-12-04T16:11:29.884Z,97342.53
2022-12-04T16:14:15.976Z,97346.34
2022-12-04T16:16:45.715Z,97347.69
2022-12-04T16:19:17.674Z,97346.00
2022-12-04T16:21:46.843Z,97341.69
2022-12-04T16:24:14.727Z,97344.00
2022-12-04T16:26:42.536Z,97335.88
2022-12-04T16:29:09.974Z,97342.19
2022-12-04T16:31:38.885Z,97341.53
2022-12-04T16:34:06.431Z,97348.31
2022-12-04T16:36:33.915Z,97347.69
2022-12-04T16:39:02.674Z,97335.56
2022-12-04T16:41:30.154Z,97330.25
2022-12-04T16:43:59.525Z,97335.56
2022-12-04T16:46:29.622Z,97329.09
2022-12-04T16:49:00.418Z,97332.91
2022-12-04T16:51:30.396Z,97331.25
2022-12-04T16:53:58.016Z,97330.91
2022-12-04T16:56:26.822Z,97330.25
2022-12-04T16:58:54.337Z,97324.94
2022-12-04T17:01:24.269Z,97326.78
2022-12-04T17:03:52.538Z,97334.56
2022-12-04T17:06:20.707Z,97335.56
2022-12-04T17:08:48.515Z,97330.25
2022-12-04T17:11:18.364Z,97341.88
2022-12-04T17:13:47.346Z,97343.34
2022-12-04T17:16:17.658Z,97342.19
2022-12-04T17:18:47.129Z,97333.38
2022-12-04T17:21:15.449Z,97349.31
2022-12-04T17:23:43.152Z,97353.81
2022-12-04T17:26:13.208Z,97355.81
2022-12-04T17:28:41.484Z,97358.13
2022-12-04T17:31:15.788Z,97362.94
2022-12-04T17:33:44.217Z,97362.59
2022-12-04T17:36:13.174Z,97359.13
2022-12-04T17:38:41.488Z,97354.31
2022-12-04T17:41:10.535Z,97360.97
2022-12-04T17:43:37.989Z,97350.69
2022-12-04T17:46:10.740Z,97359.28
2022-12-04T17:48:40.093Z,97364.44
2022-12-04T17:51:10.095Z,97362.91
2022-12-04T17:53:38.506Z,97366.09
2022-12-04T17:56:07.639Z,97369.22
2022-12-04T17:58:36.153Z,97368.22
2022-12-04T18:01:06.031Z,97359.44
2022-12-04T18:03:34.320Z,97366.94
2022-12-04T18:06:11.969Z,97367.41
2022-12-04T18:08:39.458Z,97356.97
2022-12-04T18:11:07.266Z,97350.38
2022-12-04T18:13:35.047Z,97337.25
2022-12-04T18:16:04.638Z,97340.91
2022-12-04T18:18:32.808Z,97354.00
2022-12-04T18:21:03.234Z,97340.75
2022-12-04T18:23:30.810Z,97342.56
2022-12-04T18:25:59.448Z,97342.06
2022-12-04T18:28:27.482Z,97331.44
2022-12-04T18:30:55.064Z,97333.75
2022-12-04T18:33:22.515Z,97329.63
2022-12-04T18:35:56.845Z,97334.09
2022-12-04T18:38:27.076Z,97331.28
2022-12-04T18:40:54.648Z,97330.09
2022-12-04T18:43:22.874Z,97337.94
2022-12-04T18:46:01.414Z,97343.53
2022-12-04T18:48:33.610Z,97349.66
2022-12-04T18:51:01.122Z,97352.66
2022-12-04T18:53:29.896Z,97349.66
2022-12-04T18:56:03.294Z,97349.31
2022-12-04T18:58:30.749Z,97352.81
2022-12-04T19:01:05.734Z,97350.84
2022-12-04T19:03:33.600Z,97351.34
2022-12-04T19:06:01.552Z,97351.50
2022-12-04T19:08:34.192Z,97351.19
2022-12-04T19:11:07.411Z,97354.84
2022-12-04T19:13:35.512Z,97352.66
2022-12-04T19:16:12.384Z,97352.34
2022-12-04T19:18:39.928Z,97360.81
2022-12-04T19:21:08.287Z,97341.56
2022-12-04T19:23:38.618Z,97343.22
2022-12-04T19:26:06.368Z,97335.78
2022-12-04T19:28:34.411Z,97350.88
2022-12-04T19:31:01.902Z,97356.66
2022-12-04T19:33:29.736Z,97354.50
2022-12-04T19:36:01.907Z,97360.44
2022-12-04T19:38:30.576Z,97362.09
2022-12-04T19:41:09.250Z,97363.16
2022-12-04T19:43:37.344Z,97364.78
2022-12-04T19:46:06.678Z,97359.78
2022-12-04T19:48:34.552Z,97365.94
2022-12-04T19:51:06.945Z,97375.22
2022-12-04T19:53:40.705Z,97370.38
2022-12-04T19:56:14.292Z,97375.38
2022-12-04T19:58:42.422Z,97374.03
2022-12-04T20:01:14.992Z,97373.06
2022-12-04T20:03:42.719Z,97372.41
2022-12-04T20:06:12.579Z,97377.38
2022-12-04T20:08:41.024Z,97384.00
2022-12-04T20:11:12.527Z,97383.19
2022-12-04T20:13:40.582Z,97387.16
2022-12-04T20:16:10.377Z,97390.16
2022-12-04T20:18:39.750Z,97389.00
2022-12-04T20:21:11.018Z,97386.16
2022-12-04T20:23:39.049Z,97388.31
2022-12-04T20:26:08.717Z,97393.63
2022-12-04T20:28:37.715Z,97394.97
2022-12-04T20:31:12.938Z,97390.81
2022-12-04T20:33:41.093Z,97394.13
2022-12-04T20:36:09.323Z,97396.28
2022-12-04T20:38:37.162Z,97396.44
2022-12-04T20:41:05.766Z,97400.41
2022-12-04T20:43:33.572Z,97397.25
2022-12-04T20:46:02.432Z,97407.56
2022-12-04T20:48:29.831Z,97399.44
2022-12-04T20:50:57.141Z,97409.91
2022-12-04T20:53:24.693Z,97413.84
2022-12-04T20:55:56.699Z,97404.25
2022-12-04T20:58:24.456Z,97408.22
2022-12-04T21:00:51.985Z,97408.22
2022-12-04T21:03:20.946Z,97405.56
2022-12-04T21:05:50.200Z,97405.56
2022-12-04T21:08:37.827Z,97410.06
2022-12-04T21:11:05.375Z,97400.56
2022-12-04T21:13:50.475Z,97409.03
2022-12-04T21:16:18.080Z,97414.19
2022-12-04T21:18:46.916Z,97409.38
2022-12-04T21:21:14.386Z,97408.41
2022-12-04T21:23:41.819Z,97404.59
2022-12-04T21:26:09.263Z,97409.06
2022-12-04T21:28:36.699Z,97413.34
2022-12-04T21:31:05.438Z,97406.34
2022-12-04T21:33:34.098Z,97407.19
2022-12-04T21:36:04.367Z,97410.34
2022-12-04T21:38:33.831Z,97416.47
2022-12-04T21:41:01.899Z,97430.13
2022-12-04T21:43:30.158Z,97420.47
2022-12-04T21:46:00.218Z,97431.94
2022-12-04T21:48:31.904Z,97430.47
2022-12-04T21:50:59.455Z,97433.63
2022-12-04T21:53:28.231Z,97430.31
2022-12-04T21:55:57.156Z,97447.25
2022-12-04T21:58:25.114Z,97451.41
2022-12-04T22:00:53.148Z,97454.41
2022-12-04T22:03:20.660Z,97454.91
2022-12-04T22:05:48.207Z,97454.06
2022-12-04T22:08:15.704Z,97453.56
2022-12-04T22:10:46.372Z,97449.91
2022-12-04T22:13:14.503Z,97453.91
2022-12-04T22:15:44.608Z,97457.53
2022-12-04T22:18:12.967Z,97461.34
2022-12-04T22:20:41.558Z,97459.50
2022-12-04T22:23:10.171Z,97455.69
2022-12-04T22:25:38.839Z,97458.84
2022-12-04T22:28:07.715Z,97456.69
2022-12-04T22:30:35.099Z,97458.69
2022-12-04T22:33:02.569Z,97471.16
2022-12-04T22:35:30.077Z,97457.19
2022-12-04T22:37:57.527Z,97465.84
2022-12-04T22:40:24.982Z,97464.81
2022-12-04T22:42:52.442Z,97472.47
2022-12-04T22:45:21.291Z,97467.16
2022-12-04T22:47:48.615Z,97467.16
2022-12-04T22:50:16.103Z,97470.31
2022-12-04T22:52:43.724Z,97476.78
2022-12-04T22:55:11.202Z,97479.44
2022-12-04T22:57:38.663Z,97479.63
2022-12-04T23:00:07.768Z,97476.63
2022-12-04T23:02:36.621Z,97480.78
2022-12-04T23:05:04.224Z,97480.97
2022-12-04T23:07:31.935Z,97476.94
2022-12-04T23:09:59.995Z,97479.41
2022-12-04T23:12:29.420Z,97486.59
2022-12-04T23:14:56.907Z,97475.63
2022-12-04T23:17:24.388Z,97482.78
2022-12-04T23:19:53.199Z,97485.75
2022-12-04T23:22:20.672Z,97478.09
2022-12-04T23:24:48.436Z,97484.09
2022-12-04T23:27:15.883Z,97487.41
2022-12-04T23:29:58.531Z,97479.63
2022-12-04T23:32:26.149Z,97489.75
2022-12-04T23:34:54.983Z,97484.25
2022-12-04T23:37:22.439Z,97484.75
2022-12-04T23:39:49.900Z,97475.97
2022-12-04T23:42:17.388Z,97470.63
2022-12-04T23:44:44.822Z,97480.59
2022-12-04T23:47:12.329Z,97482.91
2022-12-04T23:49:39.792Z,97481.22
2022-12-04T23:52:08.589Z,97492.38
2022-12-04T23:54:37.508Z,97495.19
2022-12-04T23:57:04.950Z,97480.09
2022-12-04T23:59:32.427Z,97494.03
